createdAt,value
2019-04-25T19:15:20.378Z,1252
2019-04-25T19:15:32.960Z,1328
2019-04-25T19:16:21.815Z,1424
2019-04-25T19:16:33.494Z,1456
2019-04-25T19:17:32.558Z,1660
2019-04-25T19:18:44.491Z,1936
2019-04-25T19:19:21.955Z,2112
2019-04-25T19:19:33.646Z,2160
2019-04-25T19:20:22.707Z,2276
2019-04-25T19:21:11.442Z,2292
2019-04-25T19:21:41.834Z,2276
2019-04-25T19:21:53.052Z,2256
2019-04-25T19:22:52.743Z,2084
2019-04-25T19:23:52.739Z,1736
2019-04-25T19:25:41.720Z,1220
2019-04-25T19:25:53.925Z,1220
2019-04-25T19:26:53.858Z,1392
2019-04-25T19:27:42.077Z,1608
2019-04-25T19:27:53.320Z,1624
2019-04-25T19:28:52.381Z,1720
2019-04-25T19:30:03.266Z,1872
2019-04-25T19:30:52.005Z,1880
2019-04-25T19:31:04.164Z,1868
2019-04-25T19:32:01.965Z,1788
2019-04-25T19:32:13.660Z,1768
2019-04-25T19:33:11.700Z,1708
2019-04-25T19:33:34.905Z,1700
2019-04-25T19:34:13.328Z,1516
2019-04-25T19:35:12.347Z,1460
2019-04-25T19:36:12.925Z,1392
2019-04-25T19:37:11.981Z,1304
2019-04-25T19:37:23.928Z,1316
2019-04-25T19:38:12.059Z,1400
2019-04-25T19:38:24.334Z,1380
2019-04-25T19:39:23.541Z,1392
2019-04-25T19:40:33.388Z,1552
2019-04-25T19:41:32.416Z,1544
2019-04-25T19:42:42.798Z,1508
2019-04-25T19:42:54.162Z,1488
2019-04-25T19:43:53.204Z,1448
2019-04-25T19:44:52.303Z,1396
2019-04-25T19:45:42.550Z,1336
2019-04-25T19:45:53.313Z,1320
2019-04-25T19:46:53.598Z,1220
2019-04-25T19:47:52.540Z,1128
2019-04-25T19:48:52.152Z,1080
2019-04-25T19:49:52.142Z,1028
2019-04-25T19:50:52.809Z,972
2019-04-25T19:51:52.491Z,912
2019-04-25T19:52:53.338Z,816
2019-04-25T19:53:42.976Z,780
2019-04-25T19:54:43.361Z,768
2019-04-25T19:55:43.385Z,740
2019-04-25T19:56:31.452Z,748
2019-04-25T19:56:43.828Z,748
2019-04-25T19:57:31.825Z,752
2019-04-25T19:58:22.170Z,768
2019-04-25T19:58:34.115Z,784
2019-04-25T19:59:22.367Z,816
2019-04-25T20:00:22.426Z,772
2019-04-25T20:01:12.981Z,768
2019-04-25T20:02:01.457Z,804
2019-04-25T20:02:13.333Z,800
2019-04-25T20:03:02.127Z,752
2019-04-25T20:04:01.628Z,664
2019-04-25T20:04:13.711Z,656
2019-04-25T20:05:02.612Z,628
2019-04-25T20:06:02.709Z,660
2019-04-25T20:07:12.729Z,760
2019-04-25T20:07:51.500Z,824
2019-04-25T20:08:03.434Z,832
2019-04-25T20:08:52.849Z,896
2019-04-25T20:09:53.554Z,912
2019-04-25T20:10:42.615Z,884
2019-04-25T20:11:32.084Z,840
2019-04-25T20:11:45.242Z,832
2019-04-25T20:12:32.690Z,812
2019-04-25T20:13:21.613Z,736
2019-04-25T20:13:33.451Z,720
2019-04-25T20:14:11.460Z,672
2019-04-25T20:14:23.343Z,656
2019-04-25T20:15:22.886Z,708
2019-04-25T20:16:11.623Z,692
2019-04-25T20:16:23.469Z,684
2019-04-25T20:17:11.630Z,640
2019-04-25T20:17:23.547Z,616
2019-04-25T20:18:12.321Z,548
2019-04-25T20:18:23.961Z,540
2019-04-25T20:19:12.620Z,484
2019-04-25T20:19:23.777Z,472
2019-04-25T20:20:13.068Z,444
2019-04-25T20:21:01.664Z,420
2019-04-25T20:21:13.069Z,408
2019-04-25T20:22:03.576Z,344
2019-04-25T20:23:04.160Z,292
2019-04-25T20:23:52.108Z,260
2019-04-25T20:24:52.852Z,244
2019-04-25T20:26:42.634Z,240
2019-04-25T20:27:43.005Z,228
2019-04-25T20:28:42.714Z,212
2019-04-25T20:29:42.091Z,208
2019-04-25T20:29:53.446Z,208
2019-04-25T20:30:42.483Z,196
2019-04-25T20:30:54.495Z,192
2019-04-25T20:31:41.659Z,184
2019-04-25T20:31:53.607Z,184
2019-04-25T20:32:41.477Z,184
2019-04-25T20:32:53.543Z,180
2019-04-25T20:33:41.730Z,176
2019-04-25T20:34:02.957Z,176
2019-04-25T20:35:42.144Z,152
2019-04-25T20:35:53.334Z,148
2019-04-25T20:36:32.957Z,132
2019-04-25T20:37:32.675Z,120
2019-04-25T20:38:42.543Z,100
2019-04-25T20:38:54.198Z,96
2019-04-25T20:39:42.360Z,88
2019-04-25T20:39:53.966Z,88
2019-04-25T20:40:41.931Z,84
2019-04-25T20:40:53.885Z,80
2019-04-25T20:41:51.889Z,72
2019-04-25T20:42:03.331Z,68
2019-04-25T20:43:01.702Z,60
2019-04-25T20:43:13.361Z,56
2019-04-25T20:44:11.926Z,44
2019-04-25T20:44:24.077Z,44
2019-04-25T20:46:01.936Z,36
2019-04-25T20:46:13.874Z,36
2019-04-25T20:47:01.802Z,32
2019-04-25T20:47:13.224Z,28
2019-04-25T20:48:01.491Z,28
2019-04-25T20:48:13.439Z,28
2019-04-25T20:49:13.124Z,20
2019-04-25T20:50:11.838Z,20
2019-04-25T20:50:23.213Z,16
2019-04-25T20:51:32.376Z,16
2019-04-25T20:52:32.746Z,16
2019-04-25T20:53:32.111Z,12
2019-04-25T20:54:32.161Z,12
2019-04-25T20:54:43.757Z,8
2019-04-25T20:55:42.573Z,8
2019-04-25T20:56:32.064Z,8
2019-04-25T20:57:32.247Z,8
2019-04-25T20:57:44.148Z,8
2019-04-25T20:58:43.374Z,8
2019-04-25T20:59:42.926Z,8
2019-04-25T21:00:42.306Z,4
2019-04-25T21:01:53.546Z,8
2019-04-25T21:02:52.684Z,8
2019-04-25T21:03:52.174Z,4
2019-04-25T21:04:12.928Z,4
2019-04-25T21:05:12.978Z,4
2019-04-25T21:06:01.994Z,4
2019-04-25T21:06:14.103Z,4
2019-04-25T21:07:01.751Z,4
2019-04-25T21:07:13.560Z,4
2019-04-25T21:08:02.193Z,4
2019-04-25T21:08:51.674Z,4
2019-04-25T21:09:03.102Z,4
2019-04-25T21:10:03.465Z,4
2019-04-25T21:11:02.665Z,4
2019-04-25T21:12:03.263Z,4
2019-04-25T21:13:02.599Z,4
2019-04-25T21:14:02.112Z,4
2019-04-25T21:14:52.771Z,4
2019-04-25T21:15:52.650Z,4
2019-04-25T21:16:42.118Z,4
2019-04-25T21:16:53.863Z,4
2019-04-25T21:17:41.989Z,4
2019-04-25T21:18:41.712Z,4
2019-04-25T21:18:53.901Z,4
2019-04-25T21:19:52.787Z,4
2019-04-25T21:20:53.264Z,4
2019-04-25T21:21:52.897Z,4
2019-04-25T21:23:02.496Z,4
2019-04-25T21:23:13.934Z,4
2019-04-25T21:24:01.951Z,4
2019-04-25T21:24:13.852Z,4
2019-04-25T21:25:02.449Z,4
2019-04-25T21:26:01.950Z,4
2019-04-25T21:26:13.424Z,4
2019-04-25T21:27:13.301Z,4
2019-04-25T21:28:13.190Z,4
2019-04-25T21:29:13.246Z,4
2019-04-25T21:30:11.917Z,4
2019-04-25T21:30:23.632Z,4
2019-04-25T21:31:12.092Z,4
2019-04-25T21:31:23.963Z,4
2019-04-25T21:32:11.810Z,4
2019-04-25T21:32:23.540Z,4
2019-04-25T21:33:02.061Z,4
2019-04-25T21:33:13.997Z,4
2019-04-25T21:34:02.030Z,4
2019-04-25T21:34:32.635Z,4
2019-04-25T21:35:22.186Z,4
2019-04-25T21:35:33.893Z,4
2019-04-25T21:36:23.885Z,4
2019-04-25T21:37:02.111Z,4
2019-04-25T21:38:02.551Z,4
2019-04-25T21:39:03.670Z,4
2019-04-25T21:39:54.548Z,4
2019-04-25T21:40:32.525Z,4
2019-04-25T21:41:33.219Z,4
2019-04-25T21:42:23.704Z,4
2019-04-25T21:43:02.328Z,4
2019-04-25T21:44:03.312Z,4
2019-04-25T21:45:02.795Z,4
2019-04-25T21:46:03.882Z,4
2019-04-25T21:46:53.614Z,4
2019-04-25T21:47:42.555Z,4
2019-04-25T21:48:32.045Z,4
2019-04-25T21:50:12.640Z,4
2019-04-25T21:51:03.475Z,4
2019-04-25T21:52:42.450Z,4
2019-04-25T21:53:31.647Z,4
2019-04-25T21:53:43.744Z,4
2019-04-25T21:54:32.799Z,4
2019-04-25T21:55:22.156Z,4
2019-04-25T21:56:23.073Z,4
2019-04-25T21:57:23.623Z,4
2019-04-25T21:58:12.682Z,4
2019-04-25T21:59:12.830Z,4
2019-04-25T22:00:42.602Z,4
2019-04-25T22:01:32.694Z,4
2019-04-25T22:02:22.558Z,4
2019-04-25T22:03:12.031Z,4
2019-04-25T22:03:24.378Z,4
2019-04-25T22:04:12.362Z,4
2019-04-25T22:04:45.650Z,4
2019-04-25T22:05:22.476Z,4
2019-04-25T22:06:21.999Z,4
2019-04-25T22:06:33.610Z,4
2019-04-25T22:07:21.488Z,4
2019-04-25T22:07:33.712Z,4
2019-04-25T22:08:21.775Z,4
2019-04-25T22:08:33.710Z,4
2019-04-25T22:09:32.598Z,4
2019-04-25T22:10:21.952Z,4
2019-04-25T22:10:33.825Z,4
2019-04-25T22:11:21.877Z,4
2019-04-25T22:11:33.820Z,4
2019-04-25T22:12:12.034Z,4
2019-04-25T22:12:23.719Z,4
2019-04-25T22:13:51.647Z,4
2019-04-25T22:14:03.292Z,4
2019-04-25T22:14:52.097Z,4
2019-04-25T22:15:03.471Z,4
2019-04-25T22:16:02.629Z,4
2019-04-25T22:17:03.877Z,4
2019-04-25T22:17:52.568Z,4
2019-04-25T22:18:41.802Z,4
2019-04-25T22:18:53.925Z,4
2019-04-25T22:19:43.553Z,4
2019-04-25T22:20:22.186Z,4
2019-04-25T22:20:34.180Z,4
2019-04-25T22:21:11.521Z,4
2019-04-25T22:21:22.934Z,4
2019-04-25T22:21:41.575Z,4
2019-04-25T22:21:53.206Z,4
2019-04-25T22:22:41.883Z,4
2019-04-25T22:22:54.042Z,4
2019-04-25T22:23:32.914Z,4
2019-04-25T22:24:18.012Z,4
2019-04-25T22:24:41.884Z,4
2019-04-25T22:24:53.764Z,4
2019-04-25T22:25:41.776Z,4
2019-04-25T22:25:53.847Z,4
2019-04-25T22:26:42.686Z,4
2019-04-25T22:27:41.593Z,4
2019-04-25T22:27:53.218Z,4
2019-04-25T22:28:43.411Z,4
2019-04-25T22:29:41.712Z,4
2019-04-25T22:29:53.346Z,4
2019-04-25T22:30:42.642Z,4
2019-04-25T22:31:31.440Z,4
2019-04-25T22:31:43.112Z,4
2019-04-25T22:32:41.812Z,4
2019-04-25T22:32:53.722Z,4
2019-04-25T22:33:42.043Z,4
2019-04-25T22:34:51.918Z,4
2019-04-25T22:35:42.080Z,4
2019-04-25T22:35:54.089Z,4
2019-04-25T22:36:42.582Z,4
2019-04-25T22:37:43.303Z,4
2019-04-25T22:38:42.647Z,4
2019-04-25T22:39:42.568Z,4
2019-04-25T22:40:42.050Z,4
2019-04-25T22:40:53.738Z,4
2019-04-25T22:41:46.227Z,4
2019-04-25T22:42:22.912Z,4
2019-04-25T22:43:22.247Z,4
2019-04-25T22:44:23.022Z,4
2019-04-25T22:45:21.999Z,4
2019-04-25T22:47:13.169Z,4
2019-04-25T22:48:12.247Z,4
2019-04-25T22:49:12.234Z,4
2019-04-25T22:50:12.849Z,4
2019-04-25T22:51:12.510Z,4
2019-04-25T22:53:02.059Z,4
2019-04-25T22:53:21.751Z,4
2019-04-25T22:54:12.327Z,4
2019-04-25T22:55:13.446Z,4
2019-04-25T22:56:11.852Z,4
2019-04-25T22:56:24.097Z,4
2019-04-25T22:57:12.597Z,4
2019-04-25T22:58:12.276Z,4
2019-04-25T22:58:23.447Z,4
2019-04-25T22:59:11.609Z,4
2019-04-25T22:59:23.458Z,4
2019-04-25T23:00:11.927Z,4
2019-04-25T23:00:23.662Z,4
2019-04-25T23:01:12.076Z,4
2019-04-25T23:01:23.748Z,4
2019-04-25T23:02:13.020Z,4
2019-04-25T23:03:12.017Z,4
2019-04-25T23:03:23.990Z,4
2019-04-25T23:04:12.443Z,4
2019-04-25T23:05:32.221Z,4
2019-04-25T23:06:21.864Z,4
2019-04-25T23:06:33.509Z,4
2019-04-25T23:07:22.398Z,4
2019-04-25T23:08:12.682Z,4
2019-04-25T23:09:12.546Z,4
2019-04-25T23:10:01.909Z,4
2019-04-25T23:11:02.843Z,4
2019-04-25T23:11:51.799Z,4
2019-04-25T23:12:03.913Z,4
2019-04-25T23:12:52.823Z,4
2019-04-25T23:13:42.024Z,4
2019-04-25T23:13:53.166Z,4
2019-04-25T23:14:53.023Z,4
2019-04-25T23:15:43.044Z,4
2019-04-25T23:16:32.859Z,4
2019-04-25T23:17:22.558Z,4
2019-04-25T23:18:23.069Z,4
2019-04-25T23:19:22.838Z,4
2019-04-25T23:20:22.556Z,4
2019-04-25T23:21:21.972Z,4
2019-04-25T23:21:33.604Z,4
2019-04-25T23:22:22.573Z,4
2019-04-25T23:23:22.905Z,4
2019-04-25T23:24:23.302Z,4
2019-04-25T23:25:12.348Z,4
2019-04-25T23:26:14.102Z,4
2019-04-25T23:27:02.224Z,4
2019-04-25T23:27:14.152Z,4
2019-04-25T23:28:02.388Z,4
2019-04-25T23:28:52.219Z,4
2019-04-25T23:29:04.777Z,4
2019-04-25T23:29:53.142Z,4
2019-04-25T23:30:52.744Z,4
2019-04-25T23:31:52.070Z,4
2019-04-25T23:32:03.995Z,4
2019-04-25T23:33:04.075Z,4
2019-04-25T23:33:42.314Z,4
2019-04-25T23:34:42.738Z,4
2019-04-25T23:34:53.911Z,4
2019-04-25T23:35:25.355Z,4
2019-04-25T23:35:44.391Z,4
2019-04-25T23:36:43.539Z,4
2019-04-25T23:37:42.905Z,4
2019-04-25T23:38:32.979Z,4
2019-04-25T23:39:22.853Z,4
2019-04-25T23:40:32.898Z,4
2019-04-25T23:41:11.509Z,4
2019-04-25T23:41:23.474Z,4
2019-04-25T23:42:23.096Z,4
2019-04-25T23:43:22.638Z,4
2019-04-25T23:43:34.086Z,4
2019-04-25T23:44:22.028Z,4
2019-04-25T23:45:33.222Z,4
2019-04-25T23:46:33.277Z,4
2019-04-25T23:47:32.596Z,4
2019-04-25T23:48:32.835Z,4
2019-04-25T23:49:22.128Z,4
2019-04-25T23:50:22.277Z,4
2019-04-25T23:51:23.254Z,4
2019-04-25T23:53:23.669Z,4
2019-04-25T23:54:22.440Z,4
2019-04-25T23:55:21.950Z,4
2019-04-25T23:55:33.645Z,4
2019-04-25T23:56:22.330Z,4
2019-04-25T23:56:34.180Z,4
2019-04-25T23:57:21.944Z,4
2019-04-25T23:57:33.099Z,4
2019-04-25T23:58:32.600Z,4
2019-04-25T23:59:31.552Z,4
2019-04-25T23:59:43.007Z,4
